Time;durP1;ratioP1;P1;durP2;ratioP2;P2;SDS_P1;SDS_P2;PMS_P1;PMS_P2;Temp;Humidity;BMP_temperature;BMP_pressure;BME280_temperature;BME280_humidity;BME280_pressure;Samples;Min_cycle;Max_cycle;Signal;HPM_P1;HPM_P2
2021/01/15 00:01:35;;;;;;;3.92;3.63;;;;;;;;;;5074904;28;20185;-83
2021/01/15 00:04:01;;;;;;;4.57;3.78;;;;;;;;;;5070774;28;20181;-81
2021/01/15 00:06:27;;;;;;;4.50;4.10;;;;;;;;;;5076390;28;20192;-82
2021/01/15 00:08:54;;;;;;;4.35;4.03;;;;;;;;;;5079452;28;20184;-81
2021/01/15 00:11:24;;;;;;;4.82;4.43;;;;;;;;;;5060402;28;20200;-81
2021/01/15 00:13:50;;;;;;;4.20;3.90;;;;;;;;;;5061969;28;20519;-82
2021/01/15 00:16:17;;;;;;;4.50;4.10;;;;;;;;;;5066222;28;20266;-80
2021/01/15 00:18:43;;;;;;;4.82;4.43;;;;;;;;;;5065721;28;20204;-84
2021/01/15 00:21:09;;;;;;;4.30;4.00;;;;;;;;;;5064453;28;20670;-81
2021/01/15 00:23:35;;;;;;;4.18;3.78;;;;;;;;;;5079345;28;20262;-80
2021/01/15 00:26:01;;;;;;;6.65;4.45;;;;;;;;;;5066463;28;20187;-80
2021/01/15 00:28:27;;;;;;;4.70;4.30;;;;;;;;;;5078159;28;20212;-82
2021/01/15 00:30:53;;;;;;;5.30;4.90;;;;;;;;;;5072254;28;20511;-81
2021/01/15 00:33:19;;;;;;;4.97;4.47;;;;;;;;;;5079590;28;20480;-85
2021/01/15 00:35:45;;;;;;;4.78;4.45;;;;;;;;;;5065804;28;20184;-80
2021/01/15 00:38:11;;;;;;;5.47;5.00;;;;;;;;;;5063804;28;20268;-79
2021/01/15 00:40:37;;;;;;;4.78;4.47;;;;;;;;;;5059594;28;20471;-81
2021/01/15 00:43:03;;;;;;;5.00;4.70;;;;;;;;;;5069321;28;20629;-80
2021/01/15 00:45:31;;;;;;;5.53;5.03;;;;;;;;;;5075916;28;20173;-79
2021/01/15 00:47:57;;;;;;;5.35;4.95;;;;;;;;;;5080806;28;20180;-79
2021/01/15 00:50:24;;;;;;;4.85;4.55;;;;;;;;;;5066036;28;20645;-79
2021/01/15 00:52:53;;;;;;;5.38;4.85;;;;;;;;;;5059273;28;20199;-79
2021/01/15 00:55:19;;;;;;;5.05;4.65;;;;;;;;;;5062023;28;20208;-79
2021/01/15 00:57:45;;;;;;;5.35;4.95;;;;;;;;;;5068761;28;20205;-79
2021/01/15 01:00:11;;;;;;;5.83;5.33;;;;;;;;;;5081593;28;20418;-81
2021/01/15 01:02:37;;;;;;;6.90;6.30;;;;;;;;;;5079771;28;20399;-80
2021/01/15 01:05:04;;;;;;;6.95;6.05;;;;;;;;;;5057874;28;20189;-81
2021/01/15 01:07:33;;;;;;;6.65;6.05;;;;;;;;;;5076976;28;20223;-81
2021/01/15 01:09:59;;;;;;;5.90;5.40;;;;;;;;;;5061082;28;20200;-81
2021/01/15 01:12:25;;;;;;;6.47;5.97;;;;;;;;;;5092887;28;20268;-81
2021/01/15 01:14:51;;;;;;;5.25;4.75;;;;;;;;;;5065686;28;20196;-81
2021/01/15 01:17:17;;;;;;;6.70;6.05;;;;;;;;;;5080068;28;20180;-79
2021/01/15 01:19:43;;;;;;;7.70;7.00;;;;;;;;;;5075821;28;20227;-81
2021/01/15 01:22:09;;;;;;;7.85;7.15;;;;;;;;;;5058866;28;20177;-82
2021/01/15 01:24:35;;;;;;;7.88;6.93;;;;;;;;;;5064285;28;20322;-80
2021/01/15 01:27:01;;;;;;;6.97;6.38;;;;;;;;;;5061728;28;20185;-85
2021/01/15 01:29:27;;;;;;;7.75;6.97;;;;;;;;;;5057724;28;20212;-87
2021/01/15 01:31:53;;;;;;;9.13;8.25;;;;;;;;;;5065302;28;20200;-89
2021/01/15 01:34:19;;;;;;;8.85;7.60;;;;;;;;;;5062364;28;20243;-86
2021/01/15 01:36:45;;;;;;;8.25;7.45;;;;;;;;;;5059402;28;20189;-86
2021/01/15 01:39:11;;;;;;;7.30;6.68;;;;;;;;;;5088390;28;20414;-89
2021/01/15 01:41:37;;;;;;;9.15;8.25;;;;;;;;;;5064997;28;20230;-85
2021/01/15 01:44:03;;;;;;;8.60;7.68;;;;;;;;;;5058039;28;20181;-85
2021/01/15 01:46:29;;;;;;;8.90;7.45;;;;;;;;;;5060059;28;20184;-85
2021/01/15 01:48:55;;;;;;;9.07;8.13;;;;;;;;;;5060827;28;20211;-85
2021/01/15 01:51:21;;;;;;;8.65;7.85;;;;;;;;;;5059174;28;20172;-84
2021/01/15 01:53:47;;;;;;;8.18;7.40;;;;;;;;;;5064812;28;20665;-82
2021/01/15 01:56:13;;;;;;;9.27;8.35;;;;;;;;;;5058455;28;20176;-88
2021/01/15 01:58:39;;;;;;;9.30;8.00;;;;;;;;;;5057194;28;20224;-81
2021/01/15 02:01:06;;;;;;;9.10;8.30;;;;;;;;;;5069380;28;20177;-85
2021/01/15 02:03:33;;;;;;;10.27;9.23;;;;;;;;;;5067412;28;20176;-87
2021/01/15 02:05:59;;;;;;;9.23;8.30;;;;;;;;;;5064533;28;20172;-88
2021/01/15 02:08:28;;;;;;;8.68;7.82;;;;;;;;;;5062642;28;20191;-86
2021/01/15 02:10:54;;;;;;;9.65;8.75;;;;;;;;;;5069372;28;20188;-87
2021/01/15 02:13:39;;;;;;;9.00;8.00;;;;;;;;;;5062820;28;20261;-86
2021/01/15 02:16:19;;;;;;;7.45;6.65;;;;;;;;;;5065491;28;20241;-87
2021/01/15 02:18:48;;;;;;;10.38;9.20;;;;;;;;;;5074949;28;20204;-87
2021/01/15 02:21:29;;;;;;;10.07;8.57;;;;;;;;;;5059308;28;20245;-86
2021/01/15 02:24:05;;;;;;;11.93;9.45;;;;;;;;;;5057190;28;20185;-86
2021/01/15 02:26:49;;;;;;;8.70;7.80;;;;;;;;;;5076238;28;20187;-85
2021/01/15 02:29:19;;;;;;;9.10;8.30;;;;;;;;;;5059208;28;20181;-87
2021/01/15 02:31:45;;;;;;;9.60;8.60;;;;;;;;;;5059643;28;20649;-86
2021/01/15 02:34:23;;;;;;;9.43;8.50;;;;;;;;;;5061147;28;20187;-87
2021/01/15 02:37:08;;;;;;;11.63;10.52;;;;;;;;;;5068740;28;20661;-88
2021/01/15 02:39:53;;;;;;;11.23;9.05;;;;;;;;;;5055401;28;20222;-86
2021/01/15 02:42:20;;;;;;;10.93;9.82;;;;;;;;;;5037932;28;20181;-85
2021/01/15 02:44:49;;;;;;;12.48;9.68;;;;;;;;;;5041429;28;20265;-85
2021/01/15 02:47:25;;;;;;;10.52;7.75;;;;;;;;;;5039465;28;20185;-87
2021/01/15 02:49:52;;;;;;;12.00;10.80;;;;;;;;;;5034630;28;20232;-86
2021/01/15 02:52:18;;;;;;;13.23;11.45;;;;;;;;;;5037452;28;20273;-85
2021/01/15 02:54:44;;;;;;;11.80;10.25;;;;;;;;;;5031192;28;20193;-88
2021/01/15 02:57:11;;;;;;;11.07;9.68;;;;;;;;;;5035045;28;20185;-87
2021/01/15 02:59:37;;;;;;;13.43;11.82;;;;;;;;;;5036887;28;20247;-88
2021/01/15 03:02:21;;;;;;;13.45;11.77;;;;;;;;;;5035805;28;20229;-86
2021/01/15 03:05:05;;;;;;;13.15;11.50;;;;;;;;;;5035114;28;20193;-85
2021/01/15 03:07:31;;;;;;;18.88;12.38;;;;;;;;;;5035540;28;20552;-85
2021/01/15 03:10:00;;;;;;;10.38;9.32;;;;;;;;;;5038218;28;20259;-86
2021/01/15 03:12:26;;;;;;;11.98;10.75;;;;;;;;;;5033525;28;20174;-85
2021/01/15 03:14:56;;;;;;;12.18;10.88;;;;;;;;;;5042062;28;20182;-85
2021/01/15 03:17:23;;;;;;;15.68;11.43;;;;;;;;;;5035467;28;20181;-86
2021/01/15 03:19:50;;;;;;;12.32;9.32;;;;;;;;;;5032844;28;20224;-85
2021/01/15 03:22:17;;;;;;;14.75;11.23;;;;;;;;;;5038589;28;20174;-86
2021/01/15 03:24:51;;;;;;;11.43;10.32;;;;;;;;;;5034560;28;20183;-87
2021/01/15 03:27:17;;;;;;;15.23;11.02;;;;;;;;;;5034625;28;20188;-85
2021/01/15 03:29:43;;;;;;;13.25;10.80;;;;;;;;;;5040298;28;20208;-85
2021/01/15 03:32:09;;;;;;;12.50;10.43;;;;;;;;;;5038591;28;20639;-86
2021/01/15 03:34:35;;;;;;;11.88;10.68;;;;;;;;;;5038084;28;20182;-88
2021/01/15 03:37:01;;;;;;;12.88;11.15;;;;;;;;;;5038740;28;20189;-86
2021/01/15 03:39:27;;;;;;;14.38;11.38;;;;;;;;;;5045856;28;20316;-85
2021/01/15 03:41:53;;;;;;;15.50;11.10;;;;;;;;;;5065774;28;20207;-86
2021/01/15 03:44:19;;;;;;;11.40;10.07;;;;;;;;;;5077998;28;20442;-84
2021/01/15 03:46:45;;;;;;;16.73;12.27;;;;;;;;;;5073096;28;20182;-85
2021/01/15 03:49:11;;;;;;;12.88;11.50;;;;;;;;;;5058968;28;20452;-85
2021/01/15 03:51:37;;;;;;;11.40;10.20;;;;;;;;;;5063474;28;20192;-86
2021/01/15 03:54:03;;;;;;;11.60;9.32;;;;;;;;;;5061686;28;20431;-85
2021/01/15 03:56:29;;;;;;;14.07;11.40;;;;;;;;;;5059937;28;20173;-86
2021/01/15 03:58:55;;;;;;;10.80;9.20;;;;;;;;;;5072937;28;20217;-85
2021/01/15 04:01:21;;;;;;;13.38;11.20;;;;;;;;;;5061238;28;20495;-85
2021/01/15 04:03:47;;;;;;;13.27;11.57;;;;;;;;;;5059546;28;20178;-86
2021/01/15 04:06:13;;;;;;;14.05;11.60;;;;;;;;;;5062248;28;20419;-86
2021/01/15 04:08:39;;;;;;;14.17;11.30;;;;;;;;;;5059619;28;20200;-85
2021/01/15 04:11:05;;;;;;;13.98;11.30;;;;;;;;;;5064497;28;20451;-86
2021/01/15 04:13:31;;;;;;;13.98;11.43;;;;;;;;;;5074465;28;20281;-87
2021/01/15 04:15:57;;;;;;;12.82;11.13;;;;;;;;;;5059265;28;20181;-86
2021/01/15 04:18:23;;;;;;;15.00;12.50;;;;;;;;;;5057398;28;20624;-86
2021/01/15 04:20:49;;;;;;;13.35;11.55;;;;;;;;;;5060232;28;20169;-86
2021/01/15 04:23:15;;;;;;;13.33;11.90;;;;;;;;;;5072427;28;20188;-86
2021/01/15 04:25:41;;;;;;;17.50;13.30;;;;;;;;;;5074761;28;20432;-85
2021/01/15 04:28:07;;;;;;;16.80;11.77;;;;;;;;;;5060418;28;20440;-84
2021/01/15 04:30:33;;;;;;;14.40;11.73;;;;;;;;;;5062397;28;20968;-88
2021/01/15 04:32:59;;;;;;;16.45;11.23;;;;;;;;;;5060668;28;20438;-85
2021/01/15 04:35:25;;;;;;;18.27;12.60;;;;;;;;;;5072165;28;20256;-87
2021/01/15 04:37:51;;;;;;;14.75;11.43;;;;;;;;;;5072650;28;20471;-85
2021/01/15 04:40:17;;;;;;;13.10;10.90;;;;;;;;;;5078146;28;20224;-85
2021/01/15 04:42:44;;;;;;;14.55;11.43;;;;;;;;;;5064259;28;20192;-86
2021/01/15 04:45:11;;;;;;;15.57;11.80;;;;;;;;;;5062181;28;20260;-86
2021/01/15 04:47:41;;;;;;;16.15;12.50;;;;;;;;;;5062430;28;20704;-85
2021/01/15 04:50:07;;;;;;;15.77;12.48;;;;;;;;;;5062344;28;20215;-87
2021/01/15 04:52:34;;;;;;;17.17;12.70;;;;;;;;;;5067004;28;20251;-90
2021/01/15 04:55:00;;;;;;;20.55;12.95;;;;;;;;;;5063276;28;20337;-90
2021/01/15 04:57:26;;;;;;;18.63;13.32;;;;;;;;;;5063816;28;20962;-86
2021/01/15 04:59:54;;;;;;;18.08;13.70;;;;;;;;;;5066350;28;20249;-84
2021/01/15 05:02:20;;;;;;;16.85;12.68;;;;;;;;;;5066862;28;20181;-87
2021/01/15 05:04:46;;;;;;;17.08;13.27;;;;;;;;;;5066695;28;20234;-86
2021/01/15 05:07:13;;;;;;;15.95;13.35;;;;;;;;;;5050819;28;20200;-88
2021/01/15 05:09:43;;;;;;;17.20;13.40;;;;;;;;;;5063895;28;20192;-89
2021/01/15 05:12:10;;;;;;;17.77;14.35;;;;;;;;;;5060673;28;20654;-86
2021/01/15 05:14:36;;;;;;;21.05;15.15;;;;;;;;;;5066008;28;20191;-86
2021/01/15 05:17:03;;;;;;;19.27;13.68;;;;;;;;;;5060784;28;20189;-87
2021/01/15 05:19:29;;;;;;;19.00;13.60;;;;;;;;;;5066285;28;20206;-86
2021/01/15 05:21:55;;;;;;;23.45;16.00;;;;;;;;;;5075090;28;20583;-86
2021/01/15 05:24:21;;;;;;;20.73;14.43;;;;;;;;;;5064350;28;20187;-87
2021/01/15 05:26:48;;;;;;;23.45;15.20;;;;;;;;;;5065576;28;20423;-88
2021/01/15 05:29:15;;;;;;;22.02;15.30;;;;;;;;;;5066089;28;20539;-86
2021/01/15 05:31:52;;;;;;;23.17;15.38;;;;;;;;;;5066621;28;20265;-86
2021/01/15 05:34:18;;;;;;;21.23;15.75;;;;;;;;;;5079576;28;20199;-86
2021/01/15 05:36:44;;;;;;;17.95;14.48;;;;;;;;;;5070416;28;20630;-85
2021/01/15 05:39:13;;;;;;;20.55;14.00;;;;;;;;;;5060028;28;20227;-89
2021/01/15 05:41:40;;;;;;;18.83;15.07;;;;;;;;;;5065995;28;20179;-86
2021/01/15 05:44:06;;;;;;;21.88;15.60;;;;;;;;;;5065168;28;20179;-86
2021/01/15 05:46:32;;;;;;;23.55;16.73;;;;;;;;;;5062731;28;20207;-86
2021/01/15 05:49:08;;;;;;;20.98;15.50;;;;;;;;;;5065661;28;20184;-88
2021/01/15 05:51:35;;;;;;;21.73;15.43;;;;;;;;;;5069465;28;20267;-87
2021/01/15 05:54:02;;;;;;;25.90;16.40;;;;;;;;;;5062779;28;20172;-85
2021/01/15 05:56:44;;;;;;;25.40;17.20;;;;;;;;;;5065053;28;20188;-85
2021/01/15 05:59:12;;;;;;;20.85;16.27;;;;;;;;;;5059248;28;20200;-87
2021/01/15 06:01:42;;;;;;;26.92;17.20;;;;;;;;;;5061901;28;20188;-88
2021/01/15 06:04:09;;;;;;;23.77;17.08;;;;;;;;;;5059798;28;20185;-86
2021/01/15 06:06:36;;;;;;;22.55;17.00;;;;;;;;;;5062920;28;20234;-86
2021/01/15 06:09:05;;;;;;;24.38;16.55;;;;;;;;;;5062781;28;20278;-86
2021/01/15 06:11:32;;;;;;;24.95;16.50;;;;;;;;;;5059649;28;20207;-87
2021/01/15 06:13:58;;;;;;;20.20;15.32;;;;;;;;;;5065650;28;20192;-87
2021/01/15 06:16:24;;;;;;;23.38;17.48;;;;;;;;;;5064931;28;20192;-90
2021/01/15 06:19:01;;;;;;;26.40;16.73;;;;;;;;;;5063403;28;20207;-86
2021/01/15 06:21:31;;;;;;;18.30;15.63;;;;;;;;;;5080611;28;20200;-86
2021/01/15 06:23:59;;;;;;;24.80;17.33;;;;;;;;;;5066495;28;20227;-87
2021/01/15 06:26:38;;;;;;;24.17;16.70;;;;;;;;;;5064748;28;20172;-86
2021/01/15 06:29:05;;;;;;;23.23;15.85;;;;;;;;;;5059826;28;20196;-88
2021/01/15 06:31:44;;;;;;;23.85;16.73;;;;;;;;;;5065457;28;20257;-86
2021/01/15 06:34:10;;;;;;;25.10;16.55;;;;;;;;;;5064825;28;20233;-87
2021/01/15 06:36:54;;;;;;;22.63;18.38;;;;;;;;;;5070167;28;20200;-88
2021/01/15 06:39:22;;;;;;;25.27;15.07;;;;;;;;;;5058514;28;20223;-86
2021/01/15 06:41:59;;;;;;;25.38;16.08;;;;;;;;;;5063788;28;20176;-85
2021/01/15 06:44:26;;;;;;;26.02;17.48;;;;;;;;;;5073080;28;20188;-87
2021/01/15 06:46:53;;;;;;;17.08;13.43;;;;;;;;;;5060680;28;20187;-84
2021/01/15 06:49:19;;;;;;;22.52;16.00;;;;;;;;;;5073786;28;20193;-83
2021/01/15 06:51:56;;;;;;;22.52;15.13;;;;;;;;;;5073456;28;20207;-86
2021/01/15 06:54:23;;;;;;;25.50;16.85;;;;;;;;;;5061625;28;20180;-84
2021/01/15 06:56:54;;;;;;;20.85;16.05;;;;;;;;;;5064838;28;20226;-86
2021/01/15 06:59:31;;;;;;;23.40;16.65;;;;;;;;;;5064770;28;20305;-86
2021/01/15 07:02:13;;;;;;;24.92;18.67;;;;;;;;;;5074497;28;20642;-87
2021/01/15 07:05:00;;;;;;;27.98;15.95;;;;;;;;;;5076201;28;20191;-84
2021/01/15 07:07:32;;;;;;;25.55;17.85;;;;;;;;;;5058446;28;20176;-87
2021/01/15 07:10:03;;;;;;;23.67;17.08;;;;;;;;;;5062583;28;20185;-86
2021/01/15 07:12:39;;;;;;;24.95;18.00;;;;;;;;;;5067737;28;20213;-86
2021/01/15 07:15:10;;;;;;;25.63;17.75;;;;;;;;;;5070734;28;20180;-85
2021/01/15 07:17:37;;;;;;;27.30;17.70;;;;;;;;;;5070072;28;20180;-83
2021/01/15 07:20:05;;;;;;;25.20;19.35;;;;;;;;;;5073018;28;20185;-87
2021/01/15 07:22:42;;;;;;;26.42;18.83;;;;;;;;;;5068566;28;20188;-88
2021/01/15 07:25:09;;;;;;;24.27;16.98;;;;;;;;;;5067586;28;20202;-86
2021/01/15 07:27:35;;;;;;;23.17;18.10;;;;;;;;;;5066564;28;20184;-87
2021/01/15 07:30:01;;;;;;;21.83;16.75;;;;;;;;;;5068977;28;20188;-87
2021/01/15 07:32:29;;;;;;;22.85;18.45;;;;;;;;;;5063479;28;20245;-89
2021/01/15 07:34:57;;;;;;;24.95;19.13;;;;;;;;;;5072751;28;20197;-85
2021/01/15 07:37:25;;;;;;;27.65;19.02;;;;;;;;;;5059698;28;20187;-85
2021/01/15 07:40:12;;;;;;;30.13;20.95;;;;;;;;;;5082479;28;20274;-84
2021/01/15 07:42:42;;;;;;;27.73;20.33;;;;;;;;;;5075889;28;20211;-84
2021/01/15 07:45:08;;;;;;;28.33;19.08;;;;;;;;;;5077348;28;20196;-84
2021/01/15 07:47:37;;;;;;;26.27;18.70;;;;;;;;;;5067352;28;20176;-86
2021/01/15 07:50:06;;;;;;;27.00;18.35;;;;;;;;;;5076369;28;20185;-83
2021/01/15 07:52:37;;;;;;;32.70;17.80;;;;;;;;;;5067643;28;20196;-83
2021/01/15 07:55:03;;;;;;;29.60;21.77;;;;;;;;;;5079199;28;20169;-84
2021/01/15 07:57:31;;;;;;;30.27;21.10;;;;;;;;;;5082235;28;20261;-84
2021/01/15 07:59:57;;;;;;;32.50;20.15;;;;;;;;;;5063300;28;20200;-83
2021/01/15 08:02:24;;;;;;;33.25;20.60;;;;;;;;;;5064144;28;20201;-84
2021/01/15 08:04:50;;;;;;;27.00;19.20;;;;;;;;;;5061434;28;20187;-82
2021/01/15 08:07:16;;;;;;;29.70;21.77;;;;;;;;;;5063347;28;20185;-84
2021/01/15 08:09:42;;;;;;;31.93;23.73;;;;;;;;;;5066728;28;20188;-84
2021/01/15 08:12:09;;;;;;;33.80;23.50;;;;;;;;;;5082660;28;20782;-83
2021/01/15 08:14:35;;;;;;;34.67;21.42;;;;;;;;;;5066582;28;20185;-85
2021/01/15 08:17:03;;;;;;;30.80;21.80;;;;;;;;;;5063688;28;20192;-83
2021/01/15 08:19:35;;;;;;;31.85;21.05;;;;;;;;;;5063815;28;20200;-82
2021/01/15 08:22:02;;;;;;;34.40;20.73;;;;;;;;;;5063858;28;20179;-82
2021/01/15 08:24:28;;;;;;;31.55;20.55;;;;;;;;;;5081867;28;20593;-83
2021/01/15 08:26:58;;;;;;;31.38;20.60;;;;;;;;;;5063156;28;20172;-83
2021/01/15 08:29:25;;;;;;;33.15;21.95;;;;;;;;;;5080886;28;20181;-83
2021/01/15 08:31:57;;;;;;;27.40;18.50;;;;;;;;;;5081719;28;20204;-84
2021/01/15 08:34:30;;;;;;;30.40;21.50;;;;;;;;;;5065979;28;20717;-84
2021/01/15 08:36:57;;;;;;;30.67;20.00;;;;;;;;;;5065940;28;20193;-83
2021/01/15 08:39:23;;;;;;;25.90;19.98;;;;;;;;;;5081980;28;20670;-82
2021/01/15 08:41:55;;;;;;;29.25;18.25;;;;;;;;;;5081250;28;20641;-84
2021/01/15 08:44:23;;;;;;;27.52;19.35;;;;;;;;;;5066291;28;20180;-82
2021/01/15 08:46:50;;;;;;;27.90;20.00;;;;;;;;;;5059217;28;20204;-81
2021/01/15 08:49:16;;;;;;;21.27;16.80;;;;;;;;;;5080361;28;20661;-84
2021/01/15 08:51:42;;;;;;;21.10;17.38;;;;;;;;;;5081844;28;20185;-82
2021/01/15 08:54:09;;;;;;;24.33;17.63;;;;;;;;;;5062505;28;20214;-81
2021/01/15 08:56:35;;;;;;;22.27;15.40;;;;;;;;;;5058558;28;20171;-84
2021/01/15 08:59:01;;;;;;;22.23;17.02;;;;;;;;;;5066042;28;20223;-82
2021/01/15 09:01:28;;;;;;;23.13;16.00;;;;;;;;;;5079319;28;20176;-83
2021/01/15 09:03:59;;;;;;;21.60;16.20;;;;;;;;;;5061925;28;20173;-84
2021/01/15 09:06:25;;;;;;;19.48;15.00;;;;;;;;;;5080595;28;20253;-82
2021/01/15 09:08:55;;;;;;;20.23;15.57;;;;;;;;;;5065128;28;20183;-83
2021/01/15 09:11:29;;;;;;;20.95;16.17;;;;;;;;;;5075313;28;20187;-82
2021/01/15 09:13:56;;;;;;;16.75;13.57;;;;;;;;;;5075657;28;20197;-84
2021/01/15 09:16:22;;;;;;;16.58;14.02;;;;;;;;;;5079505;28;20181;-81
2021/01/15 09:18:49;;;;;;;18.65;14.30;;;;;;;;;;5071094;28;20268;-82
2021/01/15 09:21:15;;;;;;;18.85;14.05;;;;;;;;;;5060176;28;20175;-83
2021/01/15 09:23:42;;;;;;;22.85;14.40;;;;;;;;;;5061199;28;20177;-83
2021/01/15 09:26:08;;;;;;;18.48;13.73;;;;;;;;;;5060728;28;20775;-82
2021/01/15 09:28:34;;;;;;;18.83;13.65;;;;;;;;;;5061409;28;20200;-83
2021/01/15 09:30:59;;;;;;;18.35;14.55;;;;;;;;;;5073355;28;20181;-83
2021/01/15 09:33:25;;;;;;;15.67;12.67;;;;;;;;;;5076917;28;20200;-82
2021/01/15 09:35:54;;;;;;;14.90;11.82;;;;;;;;;;5065415;28;20419;-84
2021/01/15 09:38:20;;;;;;;17.45;13.88;;;;;;;;;;5059838;28;20196;-82
2021/01/15 09:40:46;;;;;;;14.15;12.63;;;;;;;;;;5066053;28;20208;-83
2021/01/15 09:43:12;;;;;;;16.30;14.55;;;;;;;;;;5079820;28;20668;-84
2021/01/15 09:45:38;;;;;;;20.23;14.55;;;;;;;;;;5076611;28;20210;-82
2021/01/15 09:48:08;;;;;;;17.23;12.52;;;;;;;;;;5061605;28;20188;-84
2021/01/15 09:50:34;;;;;;;19.75;14.80;;;;;;;;;;5055416;28;20192;-83
2021/01/15 09:53:00;;;;;;;14.57;12.85;;;;;;;;;;5069200;28;20211;-85
2021/01/15 09:55:26;;;;;;;18.48;13.10;;;;;;;;;;5065059;28;20212;-83
2021/01/15 09:57:52;;;;;;;15.30;13.23;;;;;;;;;;5062552;28;20207;-84
2021/01/15 10:00:19;;;;;;;13.95;12.25;;;;;;;;;;5063000;28;20263;-83
2021/01/15 10:02:45;;;;;;;17.55;13.57;;;;;;;;;;5061478;28;20247;-84
2021/01/15 10:05:11;;;;;;;17.80;13.73;;;;;;;;;;5062503;28;20177;-83
2021/01/15 10:07:37;;;;;;;14.27;11.88;;;;;;;;;;5058231;28;20207;-82
2021/01/15 10:10:04;;;;;;;14.87;12.57;;;;;;;;;;5061414;28;20184;-82
2021/01/15 10:12:29;;;;;;;15.75;12.90;;;;;;;;;;5061489;28;20446;-83
2021/01/15 10:14:55;;;;;;;15.00;12.77;;;;;;;;;;5065194;28;20267;-82
2021/01/15 10:17:21;;;;;;;14.23;12.80;;;;;;;;;;5063779;28;20449;-83
2021/01/15 10:19:47;;;;;;;22.23;14.20;;;;;;;;;;5059047;28;20520;-82
2021/01/15 10:22:13;;;;;;;16.70;13.50;;;;;;;;;;5064307;28;20176;-83
2021/01/15 10:24:39;;;;;;;17.50;12.32;;;;;;;;;;5067028;28;20440;-82
2021/01/15 10:27:05;;;;;;;19.15;12.00;;;;;;;;;;5058949;28;20204;-84
2021/01/15 10:29:31;;;;;;;16.20;11.35;;;;;;;;;;5060746;28;20177;-84
2021/01/15 10:31:57;;;;;;;18.77;12.60;;;;;;;;;;5076884;28;20191;-85
2021/01/15 10:34:24;;;;;;;17.10;12.68;;;;;;;;;;5056634;28;20180;-83
2021/01/15 10:36:50;;;;;;;18.95;12.77;;;;;;;;;;5053894;28;20248;-82
2021/01/15 10:39:17;;;;;;;18.45;12.20;;;;;;;;;;5055419;28;20250;-81
2021/01/15 10:41:44;;;;;;;17.02;12.40;;;;;;;;;;5068230;28;20181;-83
2021/01/15 10:44:10;;;;;;;16.42;11.55;;;;;;;;;;5057961;28;20169;-83
2021/01/15 10:46:42;;;;;;;14.73;12.55;;;;;;;;;;5058552;28;20223;-85
2021/01/15 10:49:08;;;;;;;16.33;12.57;;;;;;;;;;5061538;28;20657;-82
2021/01/15 10:51:35;;;;;;;20.50;12.48;;;;;;;;;;5059922;28;20181;-85
2021/01/15 10:54:01;;;;;;;17.60;12.57;;;;;;;;;;5055394;28;20176;-82
2021/01/15 10:56:40;;;;;;;14.65;11.15;;;;;;;;;;5056774;28;20188;-84
2021/01/15 10:59:06;;;;;;;16.02;11.73;;;;;;;;;;5076454;28;20208;-82
2021/01/15 11:01:35;;;;;;;13.20;10.55;;;;;;;;;;5060361;28;20181;-83
2021/01/15 11:04:01;;;;;;;15.00;11.85;;;;;;;;;;5062719;28;20181;-83
2021/01/15 11:06:27;;;;;;;17.15;11.30;;;;;;;;;;5057176;28;20170;-83
2021/01/15 11:08:53;;;;;;;14.65;13.13;;;;;;;;;;5063372;28;20189;-84
2021/01/15 11:11:19;;;;;;;11.57;9.68;;;;;;;;;;5076123;28;20180;-85
2021/01/15 11:13:45;;;;;;;17.10;11.33;;;;;;;;;;5056677;28;20193;-84
2021/01/15 11:16:15;;;;;;;14.45;11.43;;;;;;;;;;5079069;28;20928;-83
2021/01/15 11:18:41;;;;;;;13.25;10.38;;;;;;;;;;5074987;28;20236;-83
2021/01/15 11:21:07;;;;;;;13.93;9.98;;;;;;;;;;5078707;28;20183;-83
2021/01/15 11:23:33;;;;;;;13.98;10.73;;;;;;;;;;5057920;28;20173;-81
2021/01/15 11:26:01;;;;;;;14.68;10.27;;;;;;;;;;5058338;28;20533;-82
2021/01/15 11:28:27;;;;;;;12.23;9.57;;;;;;;;;;5072776;28;20188;-84
2021/01/15 11:30:53;;;;;;;12.48;9.70;;;;;;;;;;5067631;28;20191;-82
2021/01/15 11:33:19;;;;;;;14.35;9.88;;;;;;;;;;5075946;28;20189;-84
2021/01/15 11:35:45;;;;;;;14.77;9.32;;;;;;;;;;5075703;28;20177;-85
2021/01/15 11:38:11;;;;;;;9.13;8.20;;;;;;;;;;5060251;28;20249;-83
2021/01/15 11:40:37;;;;;;;10.38;8.82;;;;;;;;;;5060610;28;20479;-84
2021/01/15 11:43:03;;;;;;;13.02;9.73;;;;;;;;;;5079013;28;20177;-82
2021/01/15 11:45:29;;;;;;;10.23;8.65;;;;;;;;;;5057381;28;20184;-83
2021/01/15 11:47:56;;;;;;;11.13;8.88;;;;;;;;;;5063657;28;20330;-81
2021/01/15 11:50:23;;;;;;;10.60;8.60;;;;;;;;;;5058878;28;20177;-82
2021/01/15 11:52:53;;;;;;;12.20;8.40;;;;;;;;;;5063718;28;20187;-82
2021/01/15 11:55:19;;;;;;;8.82;6.80;;;;;;;;;;5074821;28;20211;-82
2021/01/15 11:57:49;;;;;;;10.23;6.75;;;;;;;;;;5059979;28;20181;-83
2021/01/15 12:00:15;;;;;;;11.65;7.80;;;;;;;;;;5062733;28;20180;-85
2021/01/15 12:02:41;;;;;;;9.13;7.75;;;;;;;;;;5067488;28;20181;-84
2021/01/15 12:05:07;;;;;;;9.93;7.50;;;;;;;;;;5058494;28;20226;-82
2021/01/15 12:07:33;;;;;;;10.65;8.02;;;;;;;;;;5062836;28;20214;-84
2021/01/15 12:09:59;;;;;;;8.13;6.83;;;;;;;;;;5082925;28;20239;-83
2021/01/15 12:12:25;;;;;;;10.20;7.90;;;;;;;;;;5059760;28;20794;-82
2021/01/15 12:14:51;;;;;;;9.27;8.13;;;;;;;;;;5084833;28;20457;-83
2021/01/15 12:17:17;;;;;;;9.67;6.60;;;;;;;;;;5058806;28;20196;-84
2021/01/15 12:19:43;;;;;;;11.23;8.07;;;;;;;;;;5059581;28;20497;-83
2021/01/15 12:22:09;;;;;;;10.27;7.35;;;;;;;;;;5071904;28;20173;-81
2021/01/15 12:24:35;;;;;;;10.27;8.65;;;;;;;;;;5065600;28;20179;-84
2021/01/15 12:27:02;;;;;;;9.35;6.72;;;;;;;;;;5080558;28;20172;-84
2021/01/15 12:29:29;;;;;;;10.05;7.60;;;;;;;;;;5077337;28;20248;-84
2021/01/15 12:31:56;;;;;;;9.20;7.90;;;;;;;;;;5062118;28;20713;-80
2021/01/15 12:34:22;;;;;;;6.97;6.22;;;;;;;;;;5060110;28;20201;-84
2021/01/15 12:36:48;;;;;;;10.13;7.38;;;;;;;;;;5065706;28;20192;-84
2021/01/15 12:39:14;;;;;;;9.80;5.82;;;;;;;;;;5060548;28;20196;-83
2021/01/15 12:41:40;;;;;;;9.40;6.07;;;;;;;;;;5066662;28;20537;-83
2021/01/15 12:44:06;;;;;;;7.20;5.80;;;;;;;;;;5057012;28;20177;-83
2021/01/15 12:46:32;;;;;;;8.77;7.22;;;;;;;;;;5066487;28;20184;-83
2021/01/15 12:48:58;;;;;;;10.88;7.65;;;;;;;;;;5065232;28;20237;-81
2021/01/15 12:51:24;;;;;;;11.00;7.40;;;;;;;;;;5078088;28;20246;-81
2021/01/15 12:53:50;;;;;;;10.38;7.53;;;;;;;;;;5079192;28;20177;-81
2021/01/15 12:56:17;;;;;;;10.85;7.30;;;;;;;;;;5059157;28;20192;-83
2021/01/15 12:58:44;;;;;;;8.15;6.47;;;;;;;;;;5076700;28;20239;-84
2021/01/15 13:01:10;;;;;;;7.50;6.65;;;;;;;;;;5058724;28;20177;-83
2021/01/15 13:03:36;;;;;;;10.65;7.47;;;;;;;;;;5058535;28;20184;-81
2021/01/15 13:06:02;;;;;;;12.38;7.82;;;;;;;;;;5062109;28;20175;-83
2021/01/15 13:08:28;;;;;;;10.57;7.03;;;;;;;;;;5079312;28;20546;-82
2021/01/15 13:10:54;;;;;;;7.10;5.00;;;;;;;;;;5061599;28;20193;-86
2021/01/15 13:13:20;;;;;;;7.45;6.28;;;;;;;;;;5071831;28;20444;-81
2021/01/15 13:15:46;;;;;;;6.28;5.70;;;;;;;;;;5055285;28;20341;-82
2021/01/15 13:18:12;;;;;;;9.93;7.80;;;;;;;;;;5077346;28;20249;-81
2021/01/15 13:20:39;;;;;;;8.65;6.85;;;;;;;;;;5057347;28;20431;-81
2021/01/15 13:23:06;;;;;;;7.13;6.43;;;;;;;;;;5074077;28;20184;-83
2021/01/15 13:25:33;;;;;;;10.98;6.40;;;;;;;;;;5076946;28;20224;-82
2021/01/15 13:28:00;;;;;;;10.25;8.40;;;;;;;;;;5060313;28;20273;-83
2021/01/15 13:30:26;;;;;;;11.02;7.72;;;;;;;;;;5059115;28;20615;-82
2021/01/15 13:32:52;;;;;;;7.63;6.00;;;;;;;;;;5065797;28;20179;-84
2021/01/15 13:35:18;;;;;;;10.02;7.47;;;;;;;;;;5056851;28;20184;-83
2021/01/15 13:37:44;;;;;;;8.68;7.57;;;;;;;;;;5074983;28;20661;-82
2021/01/15 13:40:11;;;;;;;7.53;6.77;;;;;;;;;;5065393;28;20823;-80
2021/01/15 13:42:38;;;;;;;8.32;7.10;;;;;;;;;;5064046;28;20439;-82
2021/01/15 13:45:05;;;;;;;10.15;7.50;;;;;;;;;;5062817;28;20255;-83
2021/01/15 13:47:33;;;;;;;10.82;7.82;;;;;;;;;;5068839;28;20183;-83
2021/01/15 13:49:59;;;;;;;7.80;6.22;;;;;;;;;;5064644;28;20346;-83
2021/01/15 13:52:26;;;;;;;9.60;6.65;;;;;;;;;;5059861;28;20634;-82
2021/01/15 13:54:52;;;;;;;7.22;5.82;;;;;;;;;;5059460;28;20212;-83
2021/01/15 13:57:18;;;;;;;9.18;7.47;;;;;;;;;;5059176;28;20180;-82
2021/01/15 13:59:44;;;;;;;9.80;6.93;;;;;;;;;;5058635;28;20219;-82
2021/01/15 14:02:10;;;;;;;9.13;6.85;;;;;;;;;;5071708;28;20434;-81
2021/01/15 14:04:36;;;;;;;8.10;7.28;;;;;;;;;;5072933;28;20195;-83
2021/01/15 14:07:02;;;;;;;8.25;6.65;;;;;;;;;;5071834;28;20184;-83
2021/01/15 14:09:28;;;;;;;8.05;6.45;;;;;;;;;;5060478;28;20180;-84
2021/01/15 14:11:55;;;;;;;9.93;6.30;;;;;;;;;;5065410;28;20180;-82
2021/01/15 14:14:22;;;;;;;14.98;7.00;;;;;;;;;;5074329;28;20207;-82
2021/01/15 14:16:48;;;;;;;9.32;6.78;;;;;;;;;;5056986;28;20188;-82
2021/01/15 14:19:14;;;;;;;8.50;6.15;;;;;;;;;;5059155;28;20691;-83
2021/01/15 14:21:40;;;;;;;8.07;6.50;;;;;;;;;;5081584;28;20168;-83
2021/01/15 14:24:06;;;;;;;8.17;7.37;;;;;;;;;;5065111;28;20289;-83
2021/01/15 14:26:32;;;;;;;9.63;7.25;;;;;;;;;;5058924;28;20464;-83
2021/01/15 14:28:58;;;;;;;7.85;7.05;;;;;;;;;;5076839;28;20188;-80